KLHM/LHM METAR and TAF weather

Enter ICAO airport designator
Station Type Date Time Source
KLHM METAR 2021/09/25 12:55 UTC NOAA

KLHM 251255Z AUTO 15008KT 10SM CLR 18/06 A2992 RMK AO1


Station Type Date Time Source
KLHM Decoded METAR 2021/09/25 12:55 UTC NOAA

Station name not available
Sep 25, 2021 - 08:55 AM EDT / 2021.09.25 1255 UTC
Wind: from the SSE (150 degrees) at 9 MPH (8 KT):0
Visibility: 10 mile(s):0
Sky conditions: clear
Temperature: 64 F (18 C)
Dew Point: 42 F (6 C)
Relative Humidity: 45%
Pressure (altimeter): 29.92 in. Hg (1013 hPa)
ob: KLHM 251255Z AUTO 15008KT 10SM CLR 18/06 A2992 RMK AO1
cycle: 13

Station Type Date Time Source
KLHM TAF UTC NOAA

Error!

Example: see airport list